アテネ の空港の天気 - METARとTAF

アテネ国際空港 ( LGAV / ATH ) - ギリシャ アテネ
飛行場実況気象(Metar)
観測時間01/19 13:20 EET (01/19 11:20 UTC)
風向・風速南南西 4m/s
視程10km以上
天気現象
少しの雲 雲底高度 1220m
気温14℃
湿度59%
気圧1018hPa
METARLGAV 191120Z 20007KT 9999 FEW040 14/06 Q1018 NOSIG
過去の天気等 Google飛行場航空写真 Wunderground天気予報

過去48時間のMETAR

飛行場予報(TAF)
発表時間: 1/19 07:00 EET (1/19 05:00 UTC)
予報対象時間: 19日8時 EET ~ 20日8時 EET
風向・風速西 4m/s
視程10km以上
少しの雲 雲底高度 760m
全天の4割程度の雲 雲底高度 2130m
19日11時 EET ~ 19日13時 EET に徐々に
風向・風速南西 6m/s
少しの雲 雲底高度 610m
全天の8割程度の雲 雲底高度 2130m
TAF LGAV 190500Z 1906/2006 28008KT 9999 FEW025 SCT070
BECMG 1909/1911 22012KT FEW020 BKN070